createdAt,value
2023-03-19T00:00:30.692Z,10.60
2023-03-19T00:02:57.537Z,10.60
2023-03-19T00:05:24.231Z,10.60
2023-03-19T00:07:51.197Z,10.50
2023-03-19T00:10:18.085Z,10.60
2023-03-19T00:12:44.682Z,10.50
2023-03-19T00:15:14.292Z,10.40
2023-03-19T00:17:42.827Z,10.40
2023-03-19T00:20:11.561Z,10.40
2023-03-19T00:22:38.380Z,10.30
2023-03-19T00:25:05.505Z,10.30
2023-03-19T00:27:32.198Z,10.40
2023-03-19T00:29:58.771Z,10.40
2023-03-19T00:32:25.696Z,10.30
2023-03-19T00:34:52.821Z,10.40
2023-03-19T00:37:19.396Z,10.30
2023-03-19T00:39:46.023Z,10.30
2023-03-19T00:42:12.931Z,10.30
2023-03-19T00:44:39.495Z,10.30
2023-03-19T00:47:07.224Z,10.30
2023-03-19T00:49:33.820Z,10.30
2023-03-19T00:52:00.522Z,10.30
2023-03-19T00:54:27.526Z,10.30
2023-03-19T00:56:54.226Z,10.20
2023-03-19T00:59:20.875Z,10.30
2023-03-19T01:01:47.596Z,10.20
2023-03-19T01:04:15.282Z,10.20
2023-03-19T01:06:41.960Z,10.20
2023-03-19T01:09:08.711Z,10.30
2023-03-19T01:11:36.342Z,10.30
2023-03-19T01:14:03.365Z,10.20
2023-03-19T01:16:30.211Z,10.10
2023-03-19T01:18:56.820Z,10.10
2023-03-19T01:21:23.798Z,10.10
2023-03-19T01:23:51.878Z,10.20
2023-03-19T01:26:19.281Z,10.20
2023-03-19T01:28:46.011Z,10.10
2023-03-19T01:31:12.656Z,10.10
2023-03-19T01:33:39.322Z,10.10
2023-03-19T01:36:06.413Z,10.10
2023-03-19T01:38:33.053Z,10.10
2023-03-19T01:41:00.100Z,10.10
2023-03-19T01:43:28.930Z,10.20
2023-03-19T01:46:33.698Z,10.20
2023-03-19T01:49:02.656Z,10.10
2023-03-19T01:51:34.342Z,10.10
2023-03-19T01:54:05.102Z,10.10
2023-03-19T01:56:37.462Z,10.00
2023-03-19T01:59:15.977Z,10.00
2023-03-19T02:02:07.699Z,10.00
2023-03-19T02:04:36.437Z,10.00
2023-03-19T02:07:04.528Z,10.00
2023-03-19T02:09:32.569Z,10.10
2023-03-19T02:12:01.799Z,10.10
2023-03-19T02:14:28.885Z,10.10
2023-03-19T02:16:56.036Z,10.10
2023-03-19T02:19:30.577Z,10.10
2023-03-19T02:21:59.254Z,10.10
2023-03-19T02:24:32.604Z,10.10
2023-03-19T02:26:59.819Z,10.10
2023-03-19T02:29:26.520Z,10.10
2023-03-19T02:31:53.159Z,10.10
2023-03-19T02:34:19.684Z,10.10
2023-03-19T02:36:51.910Z,10.10
2023-03-19T02:39:27.091Z,10.10
2023-03-19T02:41:57.107Z,10.10
2023-03-19T02:44:23.791Z,10.10
2023-03-19T02:46:51.570Z,10.20
2023-03-19T02:49:18.855Z,10.20
2023-03-19T02:51:45.621Z,10.20
2023-03-19T02:54:12.264Z,10.20
2023-03-19T02:56:38.862Z,10.20
2023-03-19T02:59:05.462Z,10.10
2023-03-19T03:01:32.329Z,10.00
2023-03-19T03:03:58.931Z,9.90
2023-03-19T03:06:25.562Z,9.80
2023-03-19T03:08:52.339Z,9.90
2023-03-19T03:11:19.006Z,9.80
2023-03-19T03:13:45.856Z,9.90
2023-03-19T03:16:12.668Z,9.80
2023-03-19T03:18:39.318Z,9.90
2023-03-19T03:21:06.040Z,9.90
2023-03-19T03:23:32.932Z,9.90
2023-03-19T03:25:59.626Z,9.90
2023-03-19T03:28:26.207Z,9.90
2023-03-19T03:30:59.228Z,9.90
2023-03-19T03:33:26.090Z,9.90
2023-03-19T03:35:52.843Z,9.90
2023-03-19T03:38:19.467Z,9.90
2023-03-19T03:40:49.628Z,9.80
2023-03-19T03:43:16.523Z,9.80
2023-03-19T03:45:44.625Z,9.80
2023-03-19T03:48:11.496Z,9.80
2023-03-19T03:50:38.630Z,9.80
2023-03-19T03:53:05.668Z,9.80
2023-03-19T03:55:33.030Z,9.80
2023-03-19T03:57:59.623Z,9.80
2023-03-19T04:00:26.578Z,9.70
2023-03-19T04:02:53.732Z,9.70
2023-03-19T04:05:20.366Z,9.60
2023-03-19T04:07:47.676Z,9.60
2023-03-19T04:10:15.383Z,9.60
2023-03-19T04:12:42.023Z,9.60
2023-03-19T04:15:10.825Z,9.70
2023-03-19T04:17:37.439Z,9.70
2023-03-19T04:20:04.991Z,9.60
2023-03-19T04:22:32.021Z,9.70
2023-03-19T04:24:58.599Z,9.70
2023-03-19T04:27:25.285Z,9.80
2023-03-19T04:29:51.919Z,9.80
2023-03-19T04:32:18.621Z,9.80
2023-03-19T04:34:45.170Z,9.80
2023-03-19T04:37:12.434Z,9.70
2023-03-19T04:39:39.292Z,9.70
2023-03-19T04:42:06.273Z,9.70
2023-03-19T04:44:33.196Z,9.60
2023-03-19T04:46:59.900Z,9.50
2023-03-19T04:49:27.144Z,9.50
2023-03-19T04:51:53.766Z,9.40
2023-03-19T04:54:20.689Z,9.40
2023-03-19T04:56:47.342Z,9.40
2023-03-19T04:59:14.168Z,9.40
2023-03-19T05:01:40.840Z,9.40
2023-03-19T05:04:08.337Z,9.40
2023-03-19T05:06:35.222Z,9.30
2023-03-19T05:09:02.601Z,9.30
2023-03-19T05:11:29.263Z,9.30
2023-03-19T05:13:55.880Z,9.30
2023-03-19T05:16:22.676Z,9.30
2023-03-19T05:18:49.587Z,9.30
2023-03-19T05:21:16.298Z,9.30
2023-03-19T05:23:42.885Z,9.40
2023-03-19T05:26:09.646Z,9.30
2023-03-19T05:28:36.264Z,9.40
2023-03-19T05:31:04.689Z,9.40
2023-03-19T05:33:32.321Z,9.40
2023-03-19T05:35:58.959Z,9.30
2023-03-19T05:38:26.026Z,9.30
2023-03-19T05:40:52.632Z,9.30
2023-03-19T05:43:19.241Z,9.40
2023-03-19T05:45:52.303Z,9.30
2023-03-19T05:48:19.192Z,9.30
2023-03-19T05:50:45.761Z,9.30
2023-03-19T05:53:12.994Z,9.40
2023-03-19T05:55:39.674Z,9.40
2023-03-19T05:58:07.697Z,9.40
2023-03-19T06:00:34.582Z,9.40
2023-03-19T06:03:01.725Z,9.40
2023-03-19T06:05:28.387Z,9.30
2023-03-19T06:07:55.166Z,9.30
2023-03-19T06:10:22.131Z,9.30
2023-03-19T06:12:48.734Z,9.30
2023-03-19T06:15:15.522Z,9.30
2023-03-19T06:17:44.576Z,9.30
2023-03-19T06:20:12.200Z,9.30
2023-03-19T06:22:38.908Z,9.30
2023-03-19T06:25:06.598Z,9.40
2023-03-19T06:27:33.202Z,9.40
2023-03-19T06:29:59.799Z,9.40
2023-03-19T06:32:26.418Z,9.40
2023-03-19T06:34:53.268Z,9.50
2023-03-19T06:37:19.818Z,9.50
2023-03-19T06:39:46.524Z,9.50
2023-03-19T06:42:13.335Z,9.60
2023-03-19T06:44:40.113Z,9.50
2023-03-19T06:47:08.457Z,9.50
2023-03-19T06:49:35.402Z,9.50
2023-03-19T06:52:02.063Z,9.60
2023-03-19T06:54:28.725Z,9.60
2023-03-19T06:56:55.407Z,9.60
2023-03-19T06:59:22.048Z,9.60
2023-03-19T07:01:48.663Z,9.60
2023-03-19T07:04:15.808Z,9.60
2023-03-19T07:06:42.431Z,9.50
2023-03-19T07:09:09.068Z,9.60
2023-03-19T07:11:36.223Z,9.60
2023-03-19T07:14:03.620Z,9.70
2023-03-19T07:16:30.378Z,9.70
2023-03-19T07:18:57.251Z,9.80
2023-03-19T07:21:24.006Z,9.80
2023-03-19T07:23:50.866Z,9.90
2023-03-19T07:26:18.258Z,9.90
2023-03-19T07:28:44.933Z,9.90
2023-03-19T07:31:11.649Z,9.90
2023-03-19T07:33:38.255Z,9.90
2023-03-19T07:36:05.074Z,10.00
2023-03-19T07:38:31.799Z,10.10
2023-03-19T07:41:02.233Z,10.10
2023-03-19T07:43:29.258Z,10.20
2023-03-19T07:45:55.954Z,10.30
2023-03-19T07:48:22.669Z,10.30
2023-03-19T07:50:51.550Z,10.40
2023-03-19T07:53:18.610Z,10.40
2023-03-19T07:55:45.231Z,10.40
2023-03-19T07:58:11.847Z,10.50
2023-03-19T08:00:38.435Z,10.50
2023-03-19T08:03:05.406Z,10.50
2023-03-19T08:05:32.000Z,10.50
2023-03-19T08:07:58.592Z,10.50
2023-03-19T08:10:25.348Z,10.60
2023-03-19T08:12:52.404Z,10.60
2023-03-19T08:15:19.159Z,10.70
2023-03-19T08:17:45.917Z,10.70
2023-03-19T08:20:16.229Z,10.80
2023-03-19T08:22:43.055Z,10.90
2023-03-19T08:25:10.770Z,10.90
2023-03-19T08:27:37.495Z,11.00
2023-03-19T08:30:07.275Z,11.00
2023-03-19T08:32:34.228Z,11.10
2023-03-19T08:35:01.238Z,11.20
2023-03-19T08:37:28.057Z,11.20
2023-03-19T08:39:54.700Z,11.30
2023-03-19T08:42:22.680Z,11.30
2023-03-19T08:44:50.206Z,11.30
2023-03-19T08:47:17.095Z,11.40
2023-03-19T08:49:44.168Z,11.50
2023-03-19T08:52:11.651Z,11.50
2023-03-19T08:54:38.292Z,11.50
2023-03-19T08:57:04.976Z,11.60
2023-03-19T08:59:34.102Z,11.70
2023-03-19T09:02:01.562Z,11.70
2023-03-19T09:04:28.748Z,11.80
2023-03-19T09:06:55.850Z,11.90
2023-03-19T09:09:24.774Z,11.90
2023-03-19T09:11:51.528Z,12.00
2023-03-19T09:14:20.004Z,12.10
2023-03-19T09:16:46.731Z,12.10
2023-03-19T09:19:13.365Z,12.20
2023-03-19T09:21:40.020Z,12.30
2023-03-19T09:24:07.235Z,12.30
2023-03-19T09:26:34.018Z,12.40
2023-03-19T09:29:01.174Z,12.40
2023-03-19T09:31:29.619Z,12.40
2023-03-19T09:33:56.616Z,12.50
2023-03-19T09:36:23.361Z,12.60
2023-03-19T09:38:50.008Z,12.80
2023-03-19T09:41:31.716Z,13.00
2023-03-19T09:44:02.651Z,13.10
2023-03-19T09:46:38.280Z,13.20
2023-03-19T09:49:14.771Z,13.20
2023-03-19T09:52:02.524Z,13.30
2023-03-19T09:54:33.099Z,13.30
2023-03-19T09:57:00.451Z,13.30
2023-03-19T09:59:29.132Z,13.30
2023-03-19T10:02:01.654Z,13.40
2023-03-19T10:04:39.568Z,13.40
2023-03-19T10:07:29.203Z,13.50
2023-03-19T10:10:01.672Z,13.50
2023-03-19T10:12:41.950Z,13.50
2023-03-19T10:15:32.863Z,13.50
2023-03-19T10:18:15.891Z,13.50
2023-03-19T10:20:59.809Z,13.50
2023-03-19T10:23:46.916Z,13.50
2023-03-19T10:26:17.005Z,13.50
2023-03-19T10:28:47.307Z,13.50
2023-03-19T10:31:27.218Z,13.50
2023-03-19T10:34:20.809Z,13.50
2023-03-19T10:36:47.536Z,13.60
2023-03-19T10:39:17.101Z,13.70
2023-03-19T10:42:05.481Z,13.70
2023-03-19T10:44:42.215Z,13.80
2023-03-19T10:47:14.886Z,13.70
2023-03-19T10:49:42.151Z,13.70
2023-03-19T10:52:22.292Z,13.70
2023-03-19T10:54:56.482Z,13.70
2023-03-19T10:57:28.005Z,13.70
2023-03-19T11:00:05.478Z,13.70
2023-03-19T11:02:32.439Z,13.70
2023-03-19T11:05:14.204Z,13.70
2023-03-19T11:07:40.889Z,13.80
2023-03-19T11:10:17.837Z,13.70
2023-03-19T11:12:51.758Z,13.80
2023-03-19T11:15:23.903Z,13.80
2023-03-19T11:18:01.519Z,13.80
2023-03-19T11:20:34.329Z,13.90
2023-03-19T11:23:04.051Z,13.90
2023-03-19T11:25:51.802Z,13.90
2023-03-19T11:28:25.633Z,13.90
2023-03-19T11:31:24.042Z,13.90
2023-03-19T11:33:53.733Z,13.90
2023-03-19T11:36:31.866Z,13.80
2023-03-19T11:39:30.917Z,13.80
2023-03-19T11:42:45.139Z,13.70
2023-03-19T11:45:23.717Z,13.60
2023-03-19T11:48:20.166Z,13.60
2023-03-19T11:50:58.595Z,13.50
2023-03-19T11:53:31.530Z,13.40
2023-03-19T11:56:29.870Z,13.30
2023-03-19T11:59:25.612Z,13.30
2023-03-19T12:02:17.086Z,13.30
2023-03-19T12:05:09.267Z,13.20
2023-03-19T12:08:05.579Z,13.20
2023-03-19T12:10:58.071Z,13.20
2023-03-19T12:13:43.126Z,13.20
2023-03-19T12:16:20.380Z,13.20
2023-03-19T12:19:11.603Z,13.20
2023-03-19T12:21:54.648Z,13.10
2023-03-19T12:24:37.900Z,13.10
2023-03-19T12:27:39.800Z,13.00
2023-03-19T12:30:39.855Z,13.00
2023-03-19T12:33:32.477Z,12.90
2023-03-19T12:35:59.953Z,12.80
2023-03-19T12:38:43.457Z,12.80
2023-03-19T12:41:15.080Z,12.80
2023-03-19T12:43:49.685Z,12.80
2023-03-19T12:46:34.062Z,12.80
2023-03-19T12:49:11.046Z,12.70
2023-03-19T12:51:42.208Z,12.70
2023-03-19T12:54:17.850Z,12.60
2023-03-19T12:56:59.697Z,12.60
2023-03-19T12:59:36.761Z,12.50
2023-03-19T13:02:37.131Z,12.40
2023-03-19T13:05:25.094Z,12.30
2023-03-19T13:08:03.420Z,12.30
2023-03-19T13:10:34.653Z,12.30
2023-03-19T13:13:11.862Z,12.30
2023-03-19T13:15:47.832Z,12.20
2023-03-19T13:18:38.943Z,12.20
2023-03-19T13:21:28.594Z,12.20
2023-03-19T13:24:29.724Z,12.20
2023-03-19T13:27:00.591Z,12.10
2023-03-19T13:29:30.216Z,12.20
2023-03-19T13:32:02.059Z,12.20
2023-03-19T13:34:33.952Z,12.20
2023-03-19T13:37:07.006Z,12.10
2023-03-19T13:39:35.928Z,12.10
2023-03-19T13:42:42.724Z,12.10
2023-03-19T13:45:29.491Z,12.10
2023-03-19T13:47:59.104Z,12.00
2023-03-19T13:50:31.059Z,12.10
2023-03-19T13:53:22.358Z,12.00
2023-03-19T13:55:57.748Z,12.00
2023-03-19T13:58:49.602Z,12.00
2023-03-19T14:01:28.255Z,11.90
2023-03-19T14:04:01.738Z,11.90
2023-03-19T14:06:36.609Z,11.90
2023-03-19T14:09:05.802Z,11.80
2023-03-19T14:11:35.875Z,11.80
2023-03-19T14:14:07.134Z,11.70
2023-03-19T14:16:38.056Z,11.70
2023-03-19T14:19:11.535Z,11.70
2023-03-19T14:21:47.170Z,11.80
2023-03-19T14:24:55.294Z,11.80
2023-03-19T14:27:33.068Z,11.80
2023-03-19T14:30:10.199Z,11.80
2023-03-19T14:32:41.904Z,11.90
2023-03-19T14:35:16.140Z,11.90
2023-03-19T14:37:46.516Z,12.00
2023-03-19T14:40:18.688Z,12.20
2023-03-19T14:43:03.564Z,12.30
2023-03-19T14:45:58.828Z,12.30
2023-03-19T14:49:06.760Z,12.40
2023-03-19T14:52:09.391Z,12.40
2023-03-19T14:55:00.793Z,12.40
2023-03-19T14:57:27.368Z,12.40
2023-03-19T14:59:54.826Z,12.40
2023-03-19T15:02:38.418Z,12.40
2023-03-19T15:05:10.256Z,12.40
2023-03-19T15:07:44.513Z,12.40
2023-03-19T15:10:21.370Z,12.40
2023-03-19T15:13:01.827Z,12.50
2023-03-19T15:15:31.524Z,12.50
2023-03-19T15:18:16.963Z,12.50
2023-03-19T15:20:47.162Z,12.50
2023-03-19T15:23:27.329Z,12.60
2023-03-19T15:25:58.065Z,12.60
2023-03-19T15:28:38.447Z,12.50
2023-03-19T15:31:26.186Z,12.50
2023-03-19T15:33:53.379Z,12.50
2023-03-19T15:36:27.322Z,12.50
2023-03-19T15:39:06.700Z,12.50
2023-03-19T15:41:40.460Z,12.50
2023-03-19T15:44:15.508Z,12.50
2023-03-19T15:46:44.538Z,12.50
2023-03-19T15:49:25.965Z,12.50
2023-03-19T15:51:57.023Z,12.40
2023-03-19T15:54:24.948Z,12.40
2023-03-19T15:56:53.241Z,12.40
2023-03-19T15:59:24.605Z,12.30
2023-03-19T16:01:51.263Z,12.30
2023-03-19T16:04:25.318Z,12.20
2023-03-19T16:06:52.319Z,12.20
2023-03-19T16:09:23.679Z,12.20
2023-03-19T16:11:51.867Z,12.20
2023-03-19T16:14:25.191Z,12.20
2023-03-19T16:16:58.789Z,12.10
2023-03-19T16:19:34.717Z,12.10
2023-03-19T16:22:03.664Z,12.10
2023-03-19T16:24:38.842Z,12.10
2023-03-19T16:27:11.454Z,12.00
2023-03-19T16:29:43.435Z,12.00
2023-03-19T16:32:19.995Z,12.00
2023-03-19T16:34:54.941Z,11.90
2023-03-19T16:37:38.058Z,12.00
2023-03-19T16:40:13.936Z,11.90
2023-03-19T16:42:45.771Z,11.90
2023-03-19T16:45:15.972Z,11.90
2023-03-19T16:47:43.492Z,11.90
2023-03-19T16:50:11.661Z,11.90
2023-03-19T16:52:40.087Z,11.80
2023-03-19T16:55:22.703Z,11.90
2023-03-19T16:58:14.299Z,11.90
2023-03-19T17:00:43.099Z,12.00
2023-03-19T17:03:14.281Z,12.00
2023-03-19T17:05:42.881Z,11.90
2023-03-19T17:08:09.724Z,11.90
2023-03-19T17:10:39.817Z,11.90
2023-03-19T17:13:06.552Z,11.90
2023-03-19T17:15:42.286Z,11.90
2023-03-19T17:18:18.231Z,11.90
2023-03-19T17:20:58.416Z,11.80
2023-03-19T17:23:27.300Z,11.80
2023-03-19T17:25:54.660Z,11.80
2023-03-19T17:28:21.588Z,11.90
2023-03-19T17:30:49.071Z,11.80
2023-03-19T17:33:27.265Z,11.80
2023-03-19T17:35:55.799Z,11.80
2023-03-19T17:38:25.623Z,11.70
2023-03-19T17:40:52.350Z,11.70
2023-03-19T17:43:18.904Z,11.70
2023-03-19T17:45:48.471Z,11.70
2023-03-19T17:48:26.393Z,11.80
2023-03-19T17:50:56.640Z,11.80
2023-03-19T17:53:23.278Z,11.70
2023-03-19T17:55:49.894Z,11.80
2023-03-19T17:58:22.384Z,11.70
2023-03-19T18:00:51.224Z,11.70
2023-03-19T18:03:20.632Z,11.80
2023-03-19T18:05:47.781Z,11.80
2023-03-19T18:08:17.182Z,11.70
2023-03-19T18:10:44.243Z,11.70
2023-03-19T18:13:11.287Z,11.70
2023-03-19T18:15:40.179Z,11.70
2023-03-19T18:18:13.388Z,11.70
2023-03-19T18:20:41.046Z,11.70
2023-03-19T18:23:07.655Z,11.70
2023-03-19T18:25:35.549Z,11.70
2023-03-19T18:28:05.848Z,11.70
2023-03-19T18:30:35.808Z,11.70
2023-03-19T18:33:06.013Z,11.60
2023-03-19T18:35:36.915Z,11.60
2023-03-19T18:38:03.675Z,11.50
2023-03-19T18:40:31.785Z,11.50
2023-03-19T18:42:58.527Z,11.40
2023-03-19T18:45:29.931Z,11.30
2023-03-19T18:47:57.166Z,11.30
2023-03-19T18:50:27.072Z,11.20
2023-03-19T18:52:54.062Z,11.20
2023-03-19T18:55:23.065Z,11.10
2023-03-19T18:57:58.122Z,11.10
2023-03-19T19:00:28.282Z,11.00
2023-03-19T19:02:56.541Z,11.00
2023-03-19T19:05:27.619Z,10.90
2023-03-19T19:08:00.168Z,10.90
2023-03-19T19:10:31.235Z,10.80
2023-03-19T19:12:58.425Z,10.90
2023-03-19T19:15:34.764Z,10.90
2023-03-19T19:18:15.025Z,11.00
2023-03-19T19:20:41.644Z,10.90
2023-03-19T19:23:09.675Z,10.90
2023-03-19T19:25:38.215Z,10.90
2023-03-19T19:28:11.676Z,10.90
2023-03-19T19:30:38.990Z,10.90
2023-03-19T19:33:28.294Z,10.90
2023-03-19T19:35:55.853Z,10.90
2023-03-19T19:38:22.512Z,10.90
2023-03-19T19:40:52.729Z,10.80
2023-03-19T19:43:30.827Z,10.80
2023-03-19T19:45:58.422Z,10.80
2023-03-19T19:48:27.517Z,10.80
2023-03-19T19:50:55.712Z,10.80
2023-03-19T19:53:25.190Z,10.80
2023-03-19T19:55:53.277Z,10.80
2023-03-19T19:58:31.267Z,10.80
2023-03-19T20:01:03.924Z,10.80
2023-03-19T20:03:33.456Z,10.80
2023-03-19T20:06:01.619Z,10.80
2023-03-19T20:08:28.771Z,10.90
2023-03-19T20:10:56.468Z,10.80
2023-03-19T20:13:34.637Z,10.80
2023-03-19T20:16:02.593Z,10.80
2023-03-19T20:18:32.843Z,10.80
2023-03-19T20:20:59.834Z,10.80
2023-03-19T20:23:26.536Z,10.80
2023-03-19T20:25:53.599Z,10.80
2023-03-19T20:28:32.296Z,10.80
2023-03-19T20:31:00.405Z,10.70
2023-03-19T20:33:28.145Z,10.70
2023-03-19T20:35:54.891Z,10.70
2023-03-19T20:38:21.640Z,10.70
2023-03-19T20:40:56.924Z,10.70
2023-03-19T20:43:30.751Z,10.70
2023-03-19T20:45:59.477Z,10.60
2023-03-19T20:48:26.496Z,10.60
2023-03-19T20:50:54.515Z,10.60
2023-03-19T20:53:21.348Z,10.60
2023-03-19T20:55:49.120Z,10.60
2023-03-19T20:58:29.065Z,10.50
2023-03-19T21:00:57.728Z,10.50
2023-03-19T21:03:27.030Z,10.60
2023-03-19T21:05:59.922Z,10.60
2023-03-19T21:08:39.213Z,10.60
2023-03-19T21:11:08.791Z,10.50
2023-03-19T21:13:35.446Z,10.50
2023-03-19T21:16:02.186Z,10.50
2023-03-19T21:18:29.820Z,10.40
2023-03-19T21:20:57.720Z,10.40
2023-03-19T21:23:27.986Z,10.40
2023-03-19T21:25:54.779Z,10.50
2023-03-19T21:28:36.183Z,10.40
2023-03-19T21:31:03.093Z,10.40
2023-03-19T21:33:35.543Z,10.50
2023-03-19T21:36:03.183Z,10.50
2023-03-19T21:38:29.984Z,10.50
2023-03-19T21:40:59.972Z,10.50
2023-03-19T21:43:36.165Z,10.60
2023-03-19T21:46:17.440Z,10.60
2023-03-19T21:48:49.773Z,10.60
2023-03-19T21:51:17.604Z,10.60
2023-03-19T21:53:45.447Z,10.60
2023-03-19T21:56:23.999Z,10.50
2023-03-19T21:58:52.065Z,10.50
2023-03-19T22:01:24.273Z,10.40
2023-03-19T22:03:56.079Z,10.50
2023-03-19T22:06:24.158Z,10.50
2023-03-19T22:08:53.676Z,10.50
2023-03-19T22:11:25.472Z,10.60
2023-03-19T22:13:52.579Z,10.60
2023-03-19T22:16:24.900Z,10.60
2023-03-19T22:18:52.580Z,10.60
2023-03-19T22:21:22.534Z,10.60
2023-03-19T22:23:49.702Z,10.50
2023-03-19T22:26:27.415Z,10.50
2023-03-19T22:28:55.605Z,10.50
2023-03-19T22:31:22.858Z,10.50
2023-03-19T22:33:49.812Z,10.60
2023-03-19T22:36:16.721Z,10.60
2023-03-19T22:38:46.994Z,10.50
2023-03-19T22:41:26.270Z,10.50
2023-03-19T22:43:53.578Z,10.50
2023-03-19T22:46:20.650Z,10.50
2023-03-19T22:48:50.082Z,10.50
2023-03-19T22:51:23.716Z,10.50
2023-03-19T22:53:51.268Z,10.50
2023-03-19T22:56:18.940Z,10.40
2023-03-19T22:58:46.684Z,10.30
2023-03-19T23:01:39.036Z,10.20
2023-03-19T23:04:22.490Z,10.10
2023-03-19T23:06:49.885Z,10.10
2023-03-19T23:09:21.232Z,10.20
2023-03-19T23:11:48.435Z,10.10
2023-03-19T23:14:28.471Z,10.10
2023-03-19T23:19:35.137Z,10.10
2023-03-19T23:22:04.674Z,10.10
2023-03-19T23:24:31.561Z,10.20
2023-03-19T23:27:00.093Z,10.10
2023-03-19T23:29:30.665Z,10.10
2023-03-19T23:32:00.422Z,10.10
2023-03-19T23:34:28.808Z,10.00
2023-03-19T23:36:56.145Z,10.00
2023-03-19T23:39:23.980Z,10.00
2023-03-19T23:41:54.370Z,10.00
2023-03-19T23:44:21.966Z,10.00
2023-03-19T23:46:50.382Z,10.00
2023-03-19T23:49:28.720Z,10.00
2023-03-19T23:51:55.451Z,9.90
2023-03-19T23:54:31.597Z,9.90
2023-03-19T23:57:01.618Z,9.90
2023-03-19T23:59:33.158Z,9.80
